createdAt,value
2018-06-01T00:00:50.254Z,65.98
2018-06-01T00:01:59.974Z,65.88
2018-06-01T00:03:09.959Z,65.59
2018-06-01T00:04:19.417Z,65.59
2018-06-01T00:05:29.431Z,65.78
2018-06-01T00:06:39.162Z,65.88
2018-06-01T00:07:48.872Z,66.85
2018-06-01T00:08:58.857Z,66.75
2018-06-01T00:10:08.567Z,66.08
2018-06-01T00:11:18.544Z,66.56
2018-06-01T00:12:28.008Z,66.27
2018-06-01T00:13:37.992Z,66.46
2018-06-01T00:14:48.023Z,66.56
2018-06-01T00:15:57.996Z,66.85
2018-06-01T00:17:08.994Z,67.24
2018-06-01T00:18:18.722Z,67.24
2018-06-01T00:19:28.178Z,67.33
2018-06-01T00:20:37.902Z,67.52
2018-06-01T00:21:47.938Z,67.24
2018-06-01T00:22:57.669Z,67.24
2018-06-01T00:24:07.143Z,67.14
2018-06-01T00:25:17.136Z,67.4
2018-06-01T00:26:27.117Z,67.2
2018-06-01T00:27:36.829Z,67.59
2018-06-01T00:28:46.811Z,67.88
2018-06-01T00:29:56.796Z,68.26
2018-06-01T00:31:06.803Z,67.97
2018-06-01T00:32:16.523Z,67.78
2018-06-01T00:33:26.502Z,68.17
2018-06-01T00:34:36.471Z,68.17
2018-06-01T00:35:46.451Z,67.78
2018-06-01T00:36:56.428Z,68.17
2018-06-01T00:38:06.398Z,67.69
2018-06-01T00:39:16.388Z,68.07
2018-06-01T00:40:26.372Z,68.07
2018-06-01T00:41:36.394Z,68.55
2018-06-01T00:42:46.421Z,68.13
2018-06-01T00:43:56.437Z,68.91
2018-06-01T00:45:06.425Z,68.91
2018-06-01T00:46:16.429Z,69.49
2018-06-01T00:47:26.441Z,69.78
2018-06-01T00:48:36.524Z,70.26
2018-06-01T00:49:46.067Z,70.06
2018-06-01T00:50:56.046Z,70.16
2018-06-01T00:52:05.765Z,70.45
2018-06-01T00:53:15.742Z,69.64
2018-06-01T00:54:25.714Z,70.61
2018-06-01T00:55:35.684Z,70.61
2018-06-01T00:56:45.651Z,70.61
2018-06-01T00:57:55.621Z,71.09
2018-06-01T00:59:05.599Z,71
2018-06-01T01:00:15.318Z,71.38
2018-06-01T01:01:25.297Z,71.28
2018-06-01T01:02:35.286Z,71.28
2018-06-01T01:03:45.261Z,71.58
2018-06-01T01:04:54.971Z,71.58
2018-06-01T01:06:04.956Z,71.67
2018-06-01T01:07:14.404Z,71.38
2018-06-01T01:08:24.133Z,72.15
2018-06-01T01:09:34.115Z,71.67
2018-06-01T01:10:44.079Z,71.58
2018-06-01T01:11:53.536Z,72.06
2018-06-01T01:13:03.511Z,71.58
2018-06-01T01:14:13.235Z,71.48
2018-06-01T01:15:23.216Z,71.67
2018-06-01T01:16:33.196Z,71.73
2018-06-01T01:17:42.668Z,72.02
2018-06-01T01:18:52.389Z,71.86
2018-06-01T01:20:02.106Z,71.83
2018-06-01T01:21:11.832Z,71.83
2018-06-01T01:22:21.796Z,72.31
2018-06-01T01:23:31.769Z,71.64
2018-06-01T01:24:41.485Z,72.02
2018-06-01T01:25:51.452Z,72.31
2018-06-01T01:27:01.167Z,72.41
2018-06-01T01:28:11.141Z,71.92
2018-06-01T01:29:20.860Z,72.6
2018-06-01T01:30:30.902Z,72.69
2018-06-01T01:31:40.877Z,72.79
2018-06-01T01:32:50.854Z,72.89
2018-06-01T01:34:00.819Z,73.08
2018-06-01T01:35:10.540Z,73.08
2018-06-01T01:36:20.310Z,73.27
2018-06-01T01:37:30.289Z,73.14
2018-06-01T01:38:40.007Z,73.27
2018-06-01T01:39:49.978Z,73.24
2018-06-01T01:40:59.952Z,73.62
2018-06-01T01:42:09.928Z,74.01
2018-06-01T01:43:19.899Z,74.49
2018-06-01T01:44:29.353Z,74.4
2018-06-01T01:45:39.334Z,74.49
2018-06-01T01:46:49.312Z,74.68
2018-06-01T01:47:59.287Z,74.88
2018-06-01T01:49:09.269Z,74.49
2018-06-01T01:50:18.977Z,74.88
2018-06-01T01:51:28.227Z,74.58
2018-06-01T01:52:37.964Z,74.3
2018-06-01T01:53:47.432Z,75.07
2018-06-01T01:54:57.414Z,75.07
2018-06-01T01:56:07.394Z,74.88
2018-06-01T01:57:17.105Z,74.68
2018-06-01T01:58:26.815Z,74.88
2018-06-01T01:59:36.789Z,74.88
2018-06-01T02:00:46.768Z,74.68
2018-06-01T02:01:56.748Z,74.68
2018-06-01T02:03:06.728Z,74.2
2018-06-01T02:04:16.757Z,74.3
2018-06-01T02:05:26.471Z,74.3
2018-06-01T02:06:36.179Z,74.78
2018-06-01T02:07:46.045Z,75.45
2018-06-01T02:08:55.502Z,74.97
2018-06-01T02:10:05.223Z,75.55
2018-06-01T02:11:15.202Z,76.03
2018-06-01T02:12:24.913Z,75.65
2018-06-01T02:13:34.895Z,76.51
2018-06-01T02:14:44.868Z,76.61
2018-06-01T02:15:54.320Z,76.38
2018-06-01T02:17:04.301Z,76.9
2018-06-01T02:18:14.018Z,76.86
2018-06-01T02:19:23.729Z,77.38
2018-06-01T02:20:33.442Z,77.34
2018-06-01T02:21:43.418Z,77.34
2018-06-01T02:22:52.893Z,77.63
2018-06-01T02:24:02.860Z,78.4
2018-06-01T02:25:12.836Z,78.11
2018-06-01T02:26:22.807Z,78.59
2018-06-01T02:27:32.782Z,79.27
2018-06-01T02:28:42.809Z,78.98
2018-06-01T02:29:52.264Z,78.98
2018-06-01T02:31:02.251Z,79.27
2018-06-01T02:32:12.262Z,79.36
2018-06-01T02:33:21.978Z,78.79
2018-06-01T02:34:31.718Z,79.46
2018-06-01T02:35:41.690Z,80.33
2018-06-01T02:36:51.688Z,79.46
2018-06-01T02:38:01.673Z,80.71
2018-06-01T02:39:11.665Z,80.52
2018-06-01T02:40:21.667Z,81.48
2018-06-01T02:41:31.386Z,81.29
2018-06-01T02:42:41.365Z,81.77
2018-06-01T02:43:51.351Z,81.68
2018-06-01T02:45:01.325Z,82.64
2018-06-01T02:46:11.060Z,82.64
2018-06-01T02:47:20.769Z,82.64
2018-06-01T02:48:30.754Z,83.22
2018-06-01T02:49:40.748Z,83.51
2018-06-01T02:50:50.732Z,83.75
2018-06-01T02:52:00.228Z,83.75
2018-06-01T02:53:10.201Z,84.33
2018-06-01T02:54:20.170Z,84.05
2018-06-01T02:55:30.177Z,84.72
2018-06-01T02:56:39.887Z,84.33
2018-06-01T02:57:49.864Z,84.62
2018-06-01T02:58:59.848Z,85.3
2018-06-01T03:00:09.828Z,84.72
2018-06-01T03:01:19.558Z,85.2
2018-06-01T03:02:29.555Z,85.1
2018-06-01T03:03:39.539Z,85.78
2018-06-01T03:04:49.254Z,85.58
2018-06-01T03:05:59.232Z,85.87
2018-06-01T03:07:09.216Z,86.16
2018-06-01T03:08:19.216Z,86.07
2018-06-01T03:09:28.946Z,86.26
2018-06-01T03:10:38.929Z,86.26
2018-06-01T03:11:48.912Z,86.07
2018-06-01T03:12:58.637Z,86.35
2018-06-01T03:14:08.600Z,86.07
2018-06-01T03:15:18.317Z,85.68
2018-06-01T03:16:28.297Z,86.16
2018-06-01T03:17:38.286Z,85.97
2018-06-01T03:18:48.267Z,85.3
2018-06-01T03:19:58.265Z,86.26
2018-06-01T03:21:07.975Z,85.58
2018-06-01T03:22:17.950Z,86.16
2018-06-01T03:23:27.663Z,85.78
2018-06-01T03:24:37.634Z,85.58
2018-06-01T03:25:47.624Z,85.68
2018-06-01T03:26:57.364Z,86.35
2018-06-01T03:28:07.337Z,85.58
2018-06-01T03:29:17.325Z,85.68
2018-06-01T03:30:27.306Z,85.3
2018-06-01T03:31:37.302Z,85.87
2018-06-01T03:32:47.024Z,86.26
2018-06-01T03:33:56.476Z,85.68
2018-06-01T03:35:06.463Z,86.16
2018-06-01T03:36:16.439Z,85.68
2018-06-01T03:37:26.155Z,85.97
2018-06-01T03:38:36.130Z,86.26
2018-06-01T03:39:45.853Z,85.68
2018-06-01T03:40:55.573Z,86.07
2018-06-01T03:42:05.560Z,86.07
2018-06-01T03:43:15.557Z,85.68
2018-06-01T03:44:25.544Z,86.16
2018-06-01T03:45:35.535Z,85.78
2018-06-01T03:46:45.516Z,85.68
2018-06-01T03:47:55.479Z,85.58
2018-06-01T03:49:05.461Z,85.2
2018-06-01T03:50:15.433Z,85.78
2018-06-01T03:51:25.407Z,85.2
2018-06-01T03:52:35.135Z,85.78
2018-06-01T03:53:44.848Z,85.78
2018-06-01T03:54:54.560Z,85.68
2018-06-01T03:56:04.281Z,85.82
2018-06-01T03:57:14.258Z,85.49
2018-06-01T03:58:23.970Z,85.43
2018-06-01T03:59:33.683Z,85.14
2018-06-01T04:00:43.666Z,84.95
2018-06-01T04:01:53.376Z,85.05
2018-06-01T04:03:03.110Z,85.34
2018-06-01T04:04:13.096Z,84.95
2018-06-01T04:05:23.067Z,84.95
2018-06-01T04:06:32.783Z,84.66
2018-06-01T04:07:42.502Z,84.38
2018-06-01T04:08:52.229Z,84.66
2018-06-01T04:10:01.984Z,84.28
2018-06-01T04:11:11.994Z,84.28
2018-06-01T04:12:21.734Z,84.38
2018-06-01T04:13:31.714Z,84.38
2018-06-01T04:14:41.690Z,84.47
2018-06-01T04:15:51.710Z,84.28
2018-06-01T04:17:01.680Z,83.8
2018-06-01T04:18:11.661Z,83.61
2018-06-01T04:19:21.643Z,83.31
2018-06-01T04:20:31.611Z,83.41
2018-06-01T04:21:41.344Z,83.89
2018-06-01T04:22:51.304Z,83.22
2018-06-01T04:24:01.276Z,83.51
2018-06-01T04:25:11.255Z,83.51
2018-06-01T04:26:20.969Z,83.64
2018-06-01T04:27:30.685Z,83.07
2018-06-01T04:28:40.437Z,83.36
2018-06-01T04:29:50.151Z,83.55
2018-06-01T04:30:59.872Z,83.26
2018-06-01T04:32:09.845Z,82.97
2018-06-01T04:33:19.576Z,83.36
2018-06-01T04:34:29.557Z,82.68
2018-06-01T04:35:39.532Z,83.26
2018-06-01T04:36:49.509Z,83.36
2018-06-01T04:37:59.490Z,82.87
2018-06-01T04:39:09.472Z,82.49
2018-06-01T04:40:19.437Z,83.16
2018-06-01T04:41:29.207Z,82.68
2018-06-01T04:42:39.183Z,82.97
2018-06-01T04:43:48.899Z,82.59
2018-06-01T04:44:58.876Z,82.59
2018-06-01T04:46:08.852Z,82.29
2018-06-01T04:47:18.833Z,82.68
2018-06-01T04:48:28.558Z,82.2
2018-06-01T04:49:38.275Z,82.59
2018-06-01T04:50:48.239Z,82.2
2018-06-01T04:51:58.223Z,82.01
2018-06-01T04:53:08.194Z,81.72
2018-06-01T04:54:17.920Z,81.52
2018-06-01T04:55:27.934Z,82.01
2018-06-01T04:56:37.656Z,81.81
2018-06-01T04:57:47.375Z,81.04
2018-06-01T04:58:56.836Z,81.57
2018-06-01T05:00:06.867Z,81.37
2018-06-01T05:01:16.848Z,80.99
2018-06-01T05:02:26.881Z,80.79
2018-06-01T05:03:36.873Z,81.18
2018-06-01T05:04:46.867Z,80.66
2018-06-01T05:05:56.852Z,80.99
2018-06-01T05:07:06.816Z,80.41
2018-06-01T05:08:16.800Z,80.6
2018-06-01T05:09:26.785Z,80.22
2018-06-01T05:10:36.515Z,80.69
2018-06-01T05:11:46.522Z,80.79
2018-06-01T05:12:56.486Z,79.93
2018-06-01T05:14:06.464Z,79.83
2018-06-01T05:15:16.451Z,80.12
2018-06-01T05:16:26.442Z,79.83
2018-06-01T05:17:36.191Z,79.64
2018-06-01T05:18:46.385Z,79.58
2018-06-01T05:19:56.365Z,79.68
2018-06-01T05:21:06.369Z,79.49
2018-06-01T05:22:15.846Z,79.29
2018-06-01T05:23:25.973Z,79.29
2018-06-01T05:24:35.968Z,79
2018-06-01T05:25:45.957Z,79.68
2018-06-01T05:26:55.929Z,78.91
2018-06-01T05:28:05.640Z,78.71
2018-06-01T05:29:15.819Z,79.49
2018-06-01T05:30:26.075Z,79.24
2018-06-01T05:31:36.043Z,79.43
2018-06-01T05:32:46.026Z,79.04
2018-06-01T05:33:56.015Z,78.56
2018-06-01T05:35:06.013Z,78.17
2018-06-01T05:36:16.225Z,78.46
2018-06-01T05:37:26.209Z,78.17
2018-06-01T05:38:35.959Z,78.46
2018-06-01T05:39:45.962Z,78.36
2018-06-01T05:40:55.978Z,78.08
2018-06-01T05:42:05.687Z,78.08
2018-06-01T05:43:15.656Z,77.88
2018-06-01T05:44:25.637Z,77.53
2018-06-01T05:45:35.358Z,77.34
2018-06-01T05:46:45.332Z,77.44
2018-06-01T05:47:55.303Z,77.44
2018-06-01T05:49:05.285Z,77.83
2018-06-01T05:50:15.270Z,77.25
2018-06-01T05:51:25.256Z,77.15
2018-06-01T05:52:35.243Z,77.15
2018-06-01T05:53:45.227Z,77.44
2018-06-01T05:54:54.969Z,76.76
2018-06-01T05:56:05.011Z,76.37
2018-06-01T05:57:14.838Z,76.09
2018-06-01T05:58:24.826Z,76.67
2018-06-01T05:59:34.571Z,76.76
2018-06-01T06:00:44.295Z,77.05
2018-06-01T06:01:54.320Z,76.95
2018-06-01T06:03:04.314Z,76.76
2018-06-01T06:04:14.057Z,76.42
2018-06-01T06:05:24.044Z,76.32
2018-06-01T06:06:34.043Z,75.64
2018-06-01T06:07:44.030Z,75.64
2018-06-01T06:08:54.028Z,75.74
2018-06-01T06:10:03.767Z,75.93
2018-06-01T06:11:13.755Z,75.35
2018-06-01T06:12:23.742Z,74.77
2018-06-01T06:13:33.799Z,75
2018-06-01T06:14:44.164Z,74.52
2018-06-01T06:15:54.169Z,74.04
2018-06-01T06:17:12.182Z,74.42
2018-06-01T06:18:22.170Z,74.13
2018-06-01T06:19:32.181Z,73.84
2018-06-01T06:20:41.905Z,73.26
2018-06-01T06:21:51.935Z,73.2
2018-06-01T06:23:02.172Z,72.91
2018-06-01T06:24:12.168Z,72.81
2018-06-01T06:25:22.148Z,72.91
2018-06-01T06:26:32.135Z,72.91
2018-06-01T06:27:42.097Z,73.01
2018-06-01T06:28:51.566Z,72.62
2018-06-01T06:30:01.551Z,71.94
2018-06-01T06:31:11.556Z,72.52
2018-06-01T06:32:21.552Z,72.33
2018-06-01T06:33:31.526Z,72.52
2018-06-01T06:34:41.514Z,72.62
2018-06-01T06:35:51.253Z,72.42
2018-06-01T06:37:00.991Z,72.36
2018-06-01T06:38:10.985Z,72.36
2018-06-01T06:39:20.984Z,71.59
2018-06-01T06:40:31.017Z,72.17
2018-06-01T06:41:41.050Z,71.78
2018-06-01T06:42:51.040Z,71.69
2018-06-01T06:44:01.028Z,71.4
2018-06-01T06:45:10.791Z,71.11
2018-06-01T06:46:20.807Z,71.4
2018-06-01T06:47:30.562Z,70.82
2018-06-01T06:48:40.568Z,70.82
2018-06-01T06:49:50.303Z,71.14
2018-06-01T06:51:00.589Z,70.86
2018-06-01T06:52:10.843Z,70.37
2018-06-01T06:53:20.843Z,70.47
2018-06-01T06:54:30.832Z,70.37
2018-06-01T06:55:40.299Z,69.79
2018-06-01T06:56:50.316Z,70.08
2018-06-01T06:58:00.051Z,69.24
2018-06-01T06:59:10.063Z,69.05
2018-06-01T07:00:20.079Z,69.05
2018-06-01T07:01:30.104Z,69.15
2018-06-01T07:02:40.222Z,69.15
2018-06-01T07:03:50.428Z,68.66
2018-06-01T07:05:00.421Z,68.66
2018-06-01T07:06:10.196Z,68.18
2018-06-01T07:07:20.228Z,68.27
2018-06-01T07:08:29.957Z,68.08
2018-06-01T07:09:39.941Z,68.37
2018-06-01T07:10:49.974Z,68.47
2018-06-01T07:11:59.963Z,67.88
2018-06-01T07:13:09.959Z,68.08
2018-06-01T07:14:19.678Z,68.37
2018-06-01T07:15:29.672Z,68.27
2018-06-01T07:16:39.662Z,68.47
2018-06-01T07:17:49.414Z,68.12
2018-06-01T07:18:59.441Z,67.63
2018-06-01T07:20:09.494Z,67.14
2018-06-01T07:21:19.539Z,67.47
2018-06-01T07:22:29.321Z,66.6
2018-06-01T07:23:39.374Z,66.6
2018-06-01T07:24:49.386Z,66.6
2018-06-01T07:25:59.392Z,65.34
2018-06-01T07:27:09.414Z,66.02
2018-06-01T07:28:19.409Z,65.92
2018-06-01T07:29:29.413Z,66.11
2018-06-01T07:30:38.889Z,65.37
2018-06-01T07:31:48.630Z,65.27
2018-06-01T07:32:58.629Z,65.85
2018-06-01T07:34:08.108Z,65.37
2018-06-01T07:35:18.084Z,65.37
2018-06-01T07:36:28.079Z,64.82
2018-06-01T07:37:38.086Z,64.33
2018-06-01T07:38:48.179Z,65.11
2018-06-01T07:39:58.367Z,64.88
2018-06-01T07:41:08.081Z,64.88
2018-06-01T07:42:18.068Z,64.88
2018-06-01T07:43:27.783Z,64.92
2018-06-01T07:44:37.510Z,63.65
2018-06-01T07:45:47.244Z,64.43
2018-06-01T07:46:57.079Z,64.33
2018-06-01T07:48:07.268Z,64.3
2018-06-01T07:49:17.011Z,64.23
2018-06-01T07:50:26.730Z,63.65
2018-06-01T07:51:36.737Z,63.46
2018-06-01T07:52:46.728Z,63.26
2018-06-01T07:53:56.711Z,63.1
2018-06-01T07:55:06.714Z,62.81
2018-06-01T07:56:16.704Z,62.52
2018-06-01T07:57:26.769Z,62.23
2018-06-01T07:58:36.228Z,62.23
2018-06-01T07:59:46.209Z,61.65
2018-06-01T08:00:55.678Z,59.83
2018-06-01T08:02:05.666Z,60.02
2018-06-01T08:03:15.650Z,60.9
2018-06-01T08:04:25.439Z,61.38
2018-06-01T08:05:35.458Z,60.38
2018-06-01T08:06:45.492Z,60.68
2018-06-01T08:07:55.473Z,60.87
2018-06-01T08:09:05.219Z,60.48
2018-06-01T08:10:15.359Z,61.07
2018-06-01T08:11:25.088Z,61.55
2018-06-01T08:12:34.832Z,61.16
2018-06-01T08:13:44.832Z,61.16
2018-06-01T08:14:54.837Z,60.41
2018-06-01T08:16:04.844Z,60.51
2018-06-01T08:17:14.833Z,59.83
2018-06-01T08:18:24.848Z,60.12
2018-06-01T08:19:34.684Z,59.54
2018-06-01T08:20:44.699Z,58.86
2018-06-01T08:21:54.201Z,59.67
2018-06-01T08:23:04.258Z,59.38
2018-06-01T08:24:14.045Z,59.57
2018-06-01T08:25:23.826Z,58.89
2018-06-01T08:26:33.870Z,58.82
2018-06-01T08:27:43.641Z,57.95
2018-06-01T08:28:53.674Z,57.29
2018-06-01T08:30:03.681Z,56.64
2018-06-01T08:31:13.449Z,55.66
2018-06-01T08:32:23.390Z,55.01
2018-06-01T08:33:33.653Z,54.82
2018-06-01T08:34:43.693Z,53.87
2018-06-01T08:35:53.728Z,52.89
2018-06-01T08:37:03.724Z,52.31
2018-06-01T08:38:13.727Z,51.85
2018-06-01T08:39:23.914Z,52.73
2018-06-01T08:40:33.848Z,51.36
2018-06-01T08:41:43.578Z,51.65
2018-06-01T08:42:53.630Z,50.78
2018-06-01T08:44:03.396Z,51.19
2018-06-01T08:45:13.402Z,50.97
2018-06-01T08:46:23.248Z,51.36
2018-06-01T08:47:33.498Z,51.46
2018-06-01T08:48:43.523Z,51.75
2018-06-01T08:49:53.533Z,51.85
2018-06-01T08:51:03.542Z,51.46
2018-06-01T08:52:13.530Z,51.95
2018-06-01T08:53:23.549Z,51.46
2018-06-01T08:54:33.285Z,51.36
2018-06-01T08:55:42.811Z,50.51
2018-06-01T08:56:52.829Z,50.53
2018-06-01T08:58:02.587Z,51.09
2018-06-01T08:59:12.756Z,50.9
2018-06-01T09:00:23.112Z,50.63
2018-06-01T09:01:33.104Z,49.95
2018-06-01T09:02:42.866Z,49.68
2018-06-01T09:03:52.876Z,49.22
2018-06-01T09:05:02.893Z,49.68
2018-06-01T09:06:12.958Z,49.22
2018-06-01T09:07:22.710Z,48.93
2018-06-01T09:08:32.440Z,47.77
2018-06-01T09:09:42.455Z,47.7
2018-06-01T09:10:52.447Z,46.75
2018-06-01T09:12:01.920Z,46.26
2018-06-01T09:13:11.655Z,46.06
2018-06-01T09:14:21.655Z,47.8
2018-06-01T09:15:31.663Z,48.65
2018-06-01T09:16:41.197Z,48.83
2018-06-01T09:17:51.465Z,49.68
2018-06-01T09:19:01.452Z,49.76
2018-06-01T09:20:11.194Z,50.82
2018-06-01T09:21:20.925Z,50.9
2018-06-01T09:22:30.666Z,51.09
2018-06-01T09:23:40.661Z,50.6
2018-06-01T09:24:50.671Z,51.36
2018-06-01T09:26:00.646Z,51.65
2018-06-01T09:27:10.641Z,52.31
2018-06-01T09:28:20.649Z,52.8
2018-06-01T09:29:30.880Z,52.7
2018-06-01T09:30:40.613Z,52.89
2018-06-01T09:31:50.355Z,52.99
2018-06-01T09:33:00.633Z,53.58
2018-06-01T09:34:10.376Z,54.13
2018-06-01T09:35:20.420Z,53.85
2018-06-01T09:36:30.545Z,53.55
2018-06-01T09:37:40.295Z,54.43
2018-06-01T09:38:50.047Z,54.43
2018-06-01T09:40:00.070Z,53.45
2018-06-01T09:41:09.290Z,54.36
2018-06-01T09:42:19.047Z,52.7
2018-06-01T09:43:28.799Z,53.16
2018-06-01T09:44:38.859Z,52.8
2018-06-01T09:45:48.852Z,52.6
2018-06-01T09:46:58.633Z,52.31
2018-06-01T09:48:08.659Z,51.95
2018-06-01T09:49:18.660Z,51.58
2018-06-01T09:50:28.668Z,50.8
2018-06-01T09:51:38.687Z,49.56
2018-06-01T09:52:48.710Z,49.27
2018-06-01T09:53:58.431Z,49.27
2018-06-01T09:55:08.438Z,48.9
2018-06-01T09:56:18.474Z,47.75
2018-06-01T09:57:28.476Z,46.8
2018-06-01T09:58:38.214Z,46.14
2018-06-01T09:59:48.199Z,45.37
2018-06-01T10:00:58.197Z,45.01
2018-06-01T10:02:08.210Z,44.83
2018-06-01T10:03:17.988Z,44.07
2018-06-01T10:04:27.752Z,43.6
2018-06-01T10:05:37.524Z,42.35
2018-06-01T10:06:47.530Z,41.11
2018-06-01T10:07:57.348Z,39.29
2018-06-01T10:09:07.364Z,38.52
2018-06-01T10:10:17.396Z,39.03
2018-06-01T10:11:27.156Z,38.74
2018-06-01T10:12:37.213Z,37.97
2018-06-01T10:13:46.697Z,37.2
2018-06-01T10:14:56.714Z,36.13
2018-06-01T10:16:06.711Z,35.46
2018-06-01T10:17:16.461Z,37.12
2018-06-01T10:18:26.219Z,37.65
2018-06-01T10:19:35.956Z,38.44
2018-06-01T10:20:45.958Z,38.32
2018-06-01T10:21:55.988Z,39.09
2018-06-01T10:23:05.984Z,39.64
2018-06-01T10:24:15.735Z,40.63
2018-06-01T10:25:25.737Z,41.68
2018-06-01T10:26:35.876Z,41.86
2018-06-01T10:27:45.669Z,40.98
2018-06-01T10:28:55.419Z,41.37
2018-06-01T10:30:04.916Z,41.64
2018-06-01T10:31:14.413Z,42.03
2018-06-01T10:32:24.425Z,41.05
2018-06-01T10:33:33.895Z,42.62
2018-06-01T10:34:43.656Z,42.6
2018-06-01T10:35:53.656Z,43.31
2018-06-01T10:37:03.667Z,42.62
2018-06-01T10:38:13.665Z,42.91
2018-06-01T10:39:23.671Z,42.6
2018-06-01T10:40:33.802Z,42.35
2018-06-01T10:41:43.808Z,40.31
2018-06-01T10:42:53.580Z,39.94
2018-06-01T10:44:03.594Z,39.19
2018-06-01T10:45:13.948Z,38.9
2018-06-01T10:46:24.229Z,39.03
2018-06-01T10:47:34.244Z,40.09
2018-06-01T10:48:43.988Z,40.74
2018-06-01T10:49:54.021Z,40.9
2018-06-01T10:51:04.049Z,41.78
2018-06-01T10:52:14.111Z,41.66
2018-06-01T10:53:24.155Z,42.45
2018-06-01T10:54:34.160Z,43.21
2018-06-01T10:55:43.669Z,42.62
2018-06-01T10:56:53.697Z,41.84
2018-06-01T10:58:03.713Z,41.08
2018-06-01T10:59:13.754Z,41
2018-06-01T11:00:23.771Z,41.02
2018-06-01T11:01:33.891Z,40.13
2018-06-01T11:02:44.113Z,40.64
2018-06-01T11:03:53.887Z,40.23
2018-06-01T11:05:03.914Z,39.64
2018-06-01T11:06:13.423Z,39.27
2018-06-01T11:07:22.921Z,39.39
2018-06-01T11:08:32.975Z,40.35
2018-06-01T11:09:43.009Z,39.94
2018-06-01T11:10:53.107Z,40.63
2018-06-01T11:12:02.890Z,40.53
2018-06-01T11:13:13.144Z,39.66
2018-06-01T11:14:23.177Z,39.54
2018-06-01T11:15:33.468Z,40.03
2018-06-01T11:16:43.465Z,40.25
2018-06-01T11:17:53.483Z,40.94
2018-06-01T11:19:03.347Z,41.21
2018-06-01T11:20:13.185Z,41.71
2018-06-01T11:21:22.736Z,41.02
2018-06-01T11:22:33.124Z,40.8
2018-06-01T11:23:43.147Z,41.09
2018-06-01T11:24:53.164Z,40.92
2018-06-01T11:26:03.170Z,40.45
2018-06-01T11:27:13.190Z,41.31
2018-06-01T11:28:23.196Z,41.29
2018-06-01T11:29:33.222Z,41.37
2018-06-01T11:30:43.246Z,41.17
2018-06-01T11:31:53.000Z,41.47
2018-06-01T11:33:03.012Z,41.08
2018-06-01T11:34:13.062Z,40.03
2018-06-01T11:35:22.816Z,39.66
2018-06-01T11:36:32.841Z,40.92
2018-06-01T11:37:42.916Z,41.08
2018-06-01T11:38:52.980Z,40.21
2018-06-01T11:40:02.992Z,39.7
2018-06-01T11:41:12.747Z,38.84
2018-06-01T11:42:22.756Z,38.27
2018-06-01T11:43:32.773Z,38.19
2018-06-01T11:44:42.829Z,37.72
2018-06-01T11:45:52.597Z,37.92
2018-06-01T11:47:02.370Z,36.63
2018-06-01T11:48:11.881Z,37.13
2018-06-01T11:49:21.886Z,37.29
2018-06-01T11:50:31.662Z,37.88
2018-06-01T11:51:41.447Z,38.46
2018-06-01T11:52:51.188Z,38.07
2018-06-01T11:54:01.216Z,37.88
2018-06-01T11:55:10.993Z,37.96
2018-06-01T11:56:20.987Z,36.91
2018-06-01T11:57:31.012Z,36.52
2018-06-01T11:58:40.762Z,36.18
2018-06-01T11:59:50.775Z,34.53
2018-06-01T12:01:00.783Z,34.64
2018-06-01T12:02:10.795Z,33.97
2018-06-01T12:03:20.806Z,33.77
2018-06-01T12:04:30.809Z,32.9
2018-06-01T12:05:40.547Z,32.6
2018-06-01T12:06:50.538Z,32.51
2018-06-01T12:08:00.279Z,32.23
2018-06-01T12:09:10.028Z,31.93
2018-06-01T12:10:20.032Z,31.95
2018-06-01T12:11:29.528Z,31.86
2018-06-01T12:12:39.007Z,30.61
2018-06-01T12:13:48.774Z,30.13
2018-06-01T12:14:58.790Z,29.93
2018-06-01T12:16:08.543Z,29.06
2018-06-01T12:17:18.535Z,29.37
2018-06-01T12:18:28.548Z,29.06
2018-06-01T12:19:38.303Z,29.54
2018-06-01T12:20:48.337Z,28.93
2018-06-01T12:21:58.957Z,28.76
2018-06-01T12:23:09.022Z,28.09
2018-06-01T12:24:19.165Z,27.83
2018-06-01T12:25:28.934Z,27.03
2018-06-01T12:26:38.963Z,26.55
2018-06-01T12:27:48.970Z,25.68
2018-06-01T12:28:59.043Z,25.42
2018-06-01T12:30:09.119Z,25.24
2018-06-01T12:31:18.633Z,26.93
2018-06-01T12:32:28.658Z,27.48
2018-06-01T12:33:38.874Z,28.04
2018-06-01T12:34:48.609Z,28.13
2018-06-01T12:35:58.360Z,28.31
2018-06-01T12:37:08.384Z,29.1
2018-06-01T12:38:18.393Z,28.78
2018-06-01T12:39:28.462Z,28.18
2018-06-01T12:40:38.485Z,28.48
2018-06-01T12:41:48.479Z,28.56
2018-06-01T12:42:58.476Z,28.76
2018-06-01T12:44:08.486Z,27.89
2018-06-01T12:45:18.497Z,27.6
2018-06-01T12:46:28.506Z,27.12
2018-06-01T12:47:38.543Z,26.95
2018-06-01T12:48:48.569Z,26.76
2018-06-01T12:49:58.292Z,25.09
2018-06-01T12:51:08.029Z,24.52
2018-06-01T12:52:17.525Z,24.54
2018-06-01T12:53:27.555Z,23.67
2018-06-01T12:54:37.301Z,22.8
2018-06-01T12:55:47.297Z,22.81
2018-06-01T12:56:57.312Z,23.43
2018-06-01T12:58:07.074Z,24.38
2018-06-01T12:59:16.540Z,26.22
2018-06-01T13:00:26.569Z,27.06
2018-06-01T13:01:36.569Z,28.31
2018-06-01T13:02:46.331Z,28.94
2018-06-01T13:03:56.351Z,28.74
2018-06-01T13:05:06.381Z,28.64
2018-06-01T13:06:16.410Z,29.43
2018-06-01T13:07:26.422Z,29.69
2018-06-01T13:08:36.172Z,29.79
2018-06-01T13:09:46.162Z,29.78
2018-06-01T13:10:56.177Z,28.8
2018-06-01T13:12:05.922Z,28.34
2018-06-01T13:13:15.930Z,27.67
2018-06-01T13:14:25.408Z,27.4
2018-06-01T13:15:35.408Z,26.53
2018-06-01T13:16:45.429Z,27.03
2018-06-01T13:17:55.422Z,27.12
2018-06-01T13:19:05.161Z,26.82
2018-06-01T13:20:15.224Z,26.33
2018-06-01T13:21:25.227Z,26.65
2018-06-01T13:22:35.234Z,26.82
2018-06-01T13:23:45.244Z,26.64
2018-06-01T13:24:55.279Z,26.92
2018-06-01T13:26:05.296Z,27.62
2018-06-01T13:27:15.052Z,28.96
2018-06-01T13:28:24.799Z,29.52
2018-06-01T13:29:34.558Z,29.97
2018-06-01T13:30:44.559Z,30.75
2018-06-01T13:31:54.577Z,30.94
2018-06-01T13:33:04.621Z,30.85
2018-06-01T13:34:14.627Z,31.24
2018-06-01T13:35:24.650Z,31.41
2018-06-01T13:36:34.488Z,31.41
2018-06-01T13:37:43.957Z,31.8
2018-06-01T13:38:53.729Z,31.88
2018-06-01T13:40:03.724Z,32.26
2018-06-01T13:41:13.721Z,32.17
2018-06-01T13:42:23.707Z,32.86
2018-06-01T13:43:33.709Z,32.84
2018-06-01T13:44:43.457Z,32.65
2018-06-01T13:45:53.209Z,32.28
2018-06-01T13:47:03.212Z,31.41
2018-06-01T13:48:12.948Z,31.13
2018-06-01T13:49:22.936Z,31.63
2018-06-01T13:50:32.942Z,31.9
2018-06-01T13:51:42.468Z,32.28
2018-06-01T13:52:52.471Z,33.15
2018-06-01T13:54:02.197Z,33.05
2018-06-01T13:55:12.212Z,32.86
2018-06-01T13:56:22.240Z,32.95
2018-06-01T13:57:32.258Z,33.15
2018-06-01T13:58:42.292Z,32.97
2018-06-01T13:59:52.308Z,32.29
2018-06-01T14:01:02.320Z,32.1
2018-06-01T14:02:12.324Z,31.31
2018-06-01T14:03:22.162Z,30.15
2018-06-01T14:04:32.173Z,30.63
2018-06-01T14:05:41.392Z,30.83
2018-06-01T14:06:51.131Z,30.15
2018-06-01T14:08:01.126Z,31.31
2018-06-01T14:09:10.854Z,31.59
2018-06-01T14:10:20.659Z,31.57
2018-06-01T14:11:30.143Z,32.15
2018-06-01T14:12:40.155Z,32.62
2018-06-01T14:13:49.636Z,32.23
2018-06-01T14:14:59.661Z,33.02
2018-06-01T14:16:09.665Z,33.02
2018-06-01T14:17:19.145Z,33.97
2018-06-01T14:18:29.163Z,34.85
2018-06-01T14:19:38.888Z,34.64
2018-06-01T14:20:48.867Z,33.85
2018-06-01T14:21:58.630Z,34.34
2018-06-01T14:23:08.649Z,33.77
2018-06-01T14:24:18.654Z,34.64
2018-06-01T14:25:28.689Z,34.81
2018-06-01T14:26:38.748Z,34.81
2018-06-01T14:27:48.543Z,35.02
2018-06-01T14:28:58.015Z,35.02
2018-06-01T14:30:07.769Z,34.9
2018-06-01T14:31:17.507Z,34.61
2018-06-01T14:32:27.243Z,34.23
2018-06-01T14:33:37.247Z,33.64
2018-06-01T14:34:46.971Z,33.95
2018-06-01T14:35:56.769Z,33.67
2018-06-01T14:37:06.781Z,33.18
2018-06-01T14:38:16.525Z,33.1
2018-06-01T14:39:26.528Z,33.48
2018-06-01T14:40:36.366Z,33.77
2018-06-01T14:41:46.817Z,33.08
2018-06-01T14:42:56.809Z,32.71
2018-06-01T14:44:06.812Z,32.33
2018-06-01T14:45:16.818Z,32.95
2018-06-01T14:46:26.825Z,33.95
2018-06-01T14:47:36.551Z,34.06
2018-06-01T14:48:46.540Z,33.98
2018-06-01T14:49:56.044Z,33.69
2018-06-01T14:51:05.530Z,33.31
2018-06-01T14:52:15.254Z,33.01
2018-06-01T14:53:25.248Z,33.7
2018-06-01T14:54:35.349Z,33.31
2018-06-01T14:55:45.227Z,33.51
2018-06-01T14:56:54.962Z,34.1
2018-06-01T14:58:04.694Z,34.1
2018-06-01T14:59:14.695Z,33.8
2018-06-01T15:00:24.706Z,33.31
2018-06-01T15:01:34.715Z,33.22
2018-06-01T15:02:44.762Z,33.33
2018-06-01T15:03:54.506Z,33.11